Terminal Aerodrome Forecast
Issued by NWS

Home | Current Version | Previous Version | Text Only | Print | Product List | Glossary On
Versions: 1 2 3 4 5 6 7 8 9 10 11 12 13
812
FTUS45 KVEF 281724
TAFBIH
TAF
KBIH 281724Z 2818/2918 VRB06KT P6SM FEW120 SCT250
     FM282000 17010G18KT P6SM SCT100 BKN250
     FM282200 18010G18KT P6SM VCTS SCT080CB BKN150
     FM290400 34008KT P6SM SCT120 BKN250=

USA.gov is the U.S. government's official web portal to all federal, state and local government web resources and services.